sensor_id;sensor_type;location;lat;lon;timestamp;P1;durP1;ratioP1;P2;durP2;ratioP2
77451;SDS011;66537;52.370;4.832;2023-09-07T00:00:20;12.32;;;6.78;;
77451;SDS011;66537;52.370;4.832;2023-09-07T00:02:46;13.50;;;6.53;;
77451;SDS011;66537;52.370;4.832;2023-09-07T00:05:11;12.25;;;6.53;;
77451;SDS011;66537;52.370;4.832;2023-09-07T00:07:38;10.50;;;6.10;;
77451;SDS011;66537;52.370;4.832;2023-09-07T00:10:03;11.43;;;5.90;;
77451;SDS011;66537;52.370;4.832;2023-09-07T00:12:29;12.55;;;6.10;;
77451;SDS011;66537;52.370;4.832;2023-09-07T00:14:55;13.25;;;5.88;;
77451;SDS011;66537;52.370;4.832;2023-09-07T00:17:21;13.25;;;6.28;;
77451;SDS011;66537;52.370;4.832;2023-09-07T00:19:46;13.80;;;6.82;;
77451;SDS011;66537;52.370;4.832;2023-09-07T00:22:14;12.07;;;6.45;;
77451;SDS011;66537;52.370;4.832;2023-09-07T00:24:39;12.85;;;5.85;;
77451;SDS011;66537;52.370;4.832;2023-09-07T00:27:05;10.35;;;5.57;;
77451;SDS011;66537;52.370;4.832;2023-09-07T00:29:32;11.85;;;5.50;;
77451;SDS011;66537;52.370;4.832;2023-09-07T00:31:58;11.32;;;5.82;;
77451;SDS011;66537;52.370;4.832;2023-09-07T00:34:23;12.63;;;5.60;;
77451;SDS011;66537;52.370;4.832;2023-09-07T00:36:49;11.67;;;5.97;;
77451;SDS011;66537;52.370;4.832;2023-09-07T00:39:14;10.00;;;5.25;;
77451;SDS011;66537;52.370;4.832;2023-09-07T00:41:39;10.17;;;5.53;;
77451;SDS011;66537;52.370;4.832;2023-09-07T00:44:05;13.27;;;5.50;;
77451;SDS011;66537;52.370;4.832;2023-09-07T00:46:30;11.15;;;5.32;;
77451;SDS011;66537;52.370;4.832;2023-09-07T00:48:56;11.27;;;6.03;;
77451;SDS011;66537;52.370;4.832;2023-09-07T00:51:22;9.23;;;4.95;;
77451;SDS011;66537;52.370;4.832;2023-09-07T00:53:48;12.18;;;5.95;;
77451;SDS011;66537;52.370;4.832;2023-09-07T00:56:14;11.88;;;5.28;;
77451;SDS011;66537;52.370;4.832;2023-09-07T00:58:41;8.82;;;4.70;;
77451;SDS011;66537;52.370;4.832;2023-09-07T01:01:06;10.20;;;4.47;;
77451;SDS011;66537;52.370;4.832;2023-09-07T01:03:32;12.82;;;5.28;;
77451;SDS011;66537;52.370;4.832;2023-09-07T01:06:04;10.50;;;4.93;;
77451;SDS011;66537;52.370;4.832;2023-09-07T01:08:39;10.38;;;4.85;;
77451;SDS011;66537;52.370;4.832;2023-09-07T01:11:16;10.30;;;4.93;;
77451;SDS011;66537;52.370;4.832;2023-09-07T01:13:45;10.80;;;4.90;;
77451;SDS011;66537;52.370;4.832;2023-09-07T01:16:10;10.65;;;4.90;;
77451;SDS011;66537;52.370;4.832;2023-09-07T01:18:38;11.50;;;5.05;;
77451;SDS011;66537;52.370;4.832;2023-09-07T01:21:06;9.57;;;5.78;;
77451;SDS011;66537;52.370;4.832;2023-09-07T01:23:36;10.25;;;4.80;;
77451;SDS011;66537;52.370;4.832;2023-09-07T01:26:03;9.45;;;4.72;;
77451;SDS011;66537;52.370;4.832;2023-09-07T01:28:31;9.43;;;5.13;;
77451;SDS011;66537;52.370;4.832;2023-09-07T01:30:57;9.90;;;5.20;;
77451;SDS011;66537;52.370;4.832;2023-09-07T01:33:22;10.23;;;4.88;;
77451;SDS011;66537;52.370;4.832;2023-09-07T01:35:48;10.57;;;4.60;;
77451;SDS011;66537;52.370;4.832;2023-09-07T01:38:13;10.85;;;4.47;;
77451;SDS011;66537;52.370;4.832;2023-09-07T01:40:38;10.03;;;5.87;;
77451;SDS011;66537;52.370;4.832;2023-09-07T01:43:04;10.60;;;5.43;;
77451;SDS011;66537;52.370;4.832;2023-09-07T01:45:29;9.57;;;5.18;;
77451;SDS011;66537;52.370;4.832;2023-09-07T01:47:55;9.18;;;4.60;;
77451;SDS011;66537;52.370;4.832;2023-09-07T01:50:20;10.13;;;5.03;;
77451;SDS011;66537;52.370;4.832;2023-09-07T01:52:46;11.73;;;4.72;;
77451;SDS011;66537;52.370;4.832;2023-09-07T01:55:13;10.45;;;4.57;;
77451;SDS011;66537;52.370;4.832;2023-09-07T01:57:39;8.65;;;4.65;;
77451;SDS011;66537;52.370;4.832;2023-09-07T02:00:04;9.88;;;5.28;;
77451;SDS011;66537;52.370;4.832;2023-09-07T02:02:30;10.15;;;5.30;;
77451;SDS011;66537;52.370;4.832;2023-09-07T02:04:56;9.98;;;5.00;;
77451;SDS011;66537;52.370;4.832;2023-09-07T02:07:21;10.80;;;6.20;;
77451;SDS011;66537;52.370;4.832;2023-09-07T02:09:46;8.68;;;4.72;;
77451;SDS011;66537;52.370;4.832;2023-09-07T02:12:12;9.93;;;5.18;;
77451;SDS011;66537;52.370;4.832;2023-09-07T02:14:37;8.45;;;4.82;;
77451;SDS011;66537;52.370;4.832;2023-09-07T02:17:02;10.10;;;5.10;;
77451;SDS011;66537;52.370;4.832;2023-09-07T02:19:28;10.77;;;5.43;;
77451;SDS011;66537;52.370;4.832;2023-09-07T02:21:54;10.43;;;4.80;;
77451;SDS011;66537;52.370;4.832;2023-09-07T02:24:19;10.02;;;5.35;;
77451;SDS011;66537;52.370;4.832;2023-09-07T02:26:44;10.32;;;5.10;;
77451;SDS011;66537;52.370;4.832;2023-09-07T02:29:13;10.38;;;4.90;;
77451;SDS011;66537;52.370;4.832;2023-09-07T02:31:39;10.98;;;4.93;;
77451;SDS011;66537;52.370;4.832;2023-09-07T02:34:05;10.52;;;5.00;;
77451;SDS011;66537;52.370;4.832;2023-09-07T02:36:30;9.93;;;5.03;;
77451;SDS011;66537;52.370;4.832;2023-09-07T02:38:56;9.63;;;5.28;;
77451;SDS011;66537;52.370;4.832;2023-09-07T02:41:21;9.25;;;5.13;;
77451;SDS011;66537;52.370;4.832;2023-09-07T02:43:47;11.13;;;5.28;;
77451;SDS011;66537;52.370;4.832;2023-09-07T02:46:12;8.77;;;5.10;;
77451;SDS011;66537;52.370;4.832;2023-09-07T02:48:37;12.52;;;5.30;;
77451;SDS011;66537;52.370;4.832;2023-09-07T02:51:03;9.43;;;5.77;;
77451;SDS011;66537;52.370;4.832;2023-09-07T02:53:28;11.90;;;5.60;;
77451;SDS011;66537;52.370;4.832;2023-09-07T02:55:54;10.48;;;5.10;;
77451;SDS011;66537;52.370;4.832;2023-09-07T02:58:21;16.65;;;7.32;;
77451;SDS011;66537;52.370;4.832;2023-09-07T03:00:49;11.90;;;5.68;;
77451;SDS011;66537;52.370;4.832;2023-09-07T03:03:14;10.88;;;5.15;;
77451;SDS011;66537;52.370;4.832;2023-09-07T03:05:40;11.77;;;5.80;;
77451;SDS011;66537;52.370;4.832;2023-09-07T03:08:07;10.10;;;5.43;;
77451;SDS011;66537;52.370;4.832;2023-09-07T03:10:33;12.60;;;5.53;;
77451;SDS011;66537;52.370;4.832;2023-09-07T03:12:59;12.20;;;5.15;;
77451;SDS011;66537;52.370;4.832;2023-09-07T03:15:25;10.50;;;5.72;;
77451;SDS011;66537;52.370;4.832;2023-09-07T03:17:50;11.68;;;6.20;;
77451;SDS011;66537;52.370;4.832;2023-09-07T03:20:15;11.35;;;6.15;;
77451;SDS011;66537;52.370;4.832;2023-09-07T03:22:44;12.43;;;6.05;;
77451;SDS011;66537;52.370;4.832;2023-09-07T03:25:10;10.80;;;5.72;;
77451;SDS011;66537;52.370;4.832;2023-09-07T03:27:36;10.90;;;6.13;;
77451;SDS011;66537;52.370;4.832;2023-09-07T03:30:03;11.10;;;6.32;;
77451;SDS011;66537;52.370;4.832;2023-09-07T03:32:30;10.07;;;6.22;;
77451;SDS011;66537;52.370;4.832;2023-09-07T03:34:58;13.32;;;6.78;;
77451;SDS011;66537;52.370;4.832;2023-09-07T03:37:24;10.90;;;5.38;;
77451;SDS011;66537;52.370;4.832;2023-09-07T03:39:50;14.50;;;6.83;;
77451;SDS011;66537;52.370;4.832;2023-09-07T03:42:15;11.65;;;6.95;;
77451;SDS011;66537;52.370;4.832;2023-09-07T03:44:41;15.30;;;6.95;;
77451;SDS011;66537;52.370;4.832;2023-09-07T03:47:06;13.77;;;6.72;;
77451;SDS011;66537;52.370;4.832;2023-09-07T03:49:33;14.07;;;6.60;;
77451;SDS011;66537;52.370;4.832;2023-09-07T03:51:59;15.02;;;7.05;;
77451;SDS011;66537;52.370;4.832;2023-09-07T03:54:24;14.43;;;7.10;;
77451;SDS011;66537;52.370;4.832;2023-09-07T03:56:49;12.70;;;7.40;;
77451;SDS011;66537;52.370;4.832;2023-09-07T03:59:15;15.82;;;7.22;;
77451;SDS011;66537;52.370;4.832;2023-09-07T04:01:40;11.80;;;6.90;;
77451;SDS011;66537;52.370;4.832;2023-09-07T04:04:06;14.30;;;7.03;;
77451;SDS011;66537;52.370;4.832;2023-09-07T04:06:31;12.53;;;7.10;;
77451;SDS011;66537;52.370;4.832;2023-09-07T04:08:57;12.55;;;6.82;;
77451;SDS011;66537;52.370;4.832;2023-09-07T04:11:22;14.52;;;7.13;;
77451;SDS011;66537;52.370;4.832;2023-09-07T04:13:47;12.10;;;6.75;;
77451;SDS011;66537;52.370;4.832;2023-09-07T04:16:13;12.18;;;7.22;;
77451;SDS011;66537;52.370;4.832;2023-09-07T04:18:39;11.80;;;6.32;;
77451;SDS011;66537;52.370;4.832;2023-09-07T04:21:05;12.43;;;8.13;;
77451;SDS011;66537;52.370;4.832;2023-09-07T04:23:31;15.27;;;6.90;;
77451;SDS011;66537;52.370;4.832;2023-09-07T04:26:09;12.32;;;7.00;;
77451;SDS011;66537;52.370;4.832;2023-09-07T04:28:36;15.60;;;6.75;;
77451;SDS011;66537;52.370;4.832;2023-09-07T04:31:02;13.90;;;6.95;;
77451;SDS011;66537;52.370;4.832;2023-09-07T04:33:31;15.63;;;6.65;;
77451;SDS011;66537;52.370;4.832;2023-09-07T04:36:11;15.45;;;7.72;;
77451;SDS011;66537;52.370;4.832;2023-09-07T04:38:37;13.52;;;6.80;;
77451;SDS011;66537;52.370;4.832;2023-09-07T04:41:07;12.93;;;6.68;;
77451;SDS011;66537;52.370;4.832;2023-09-07T04:43:36;13.75;;;7.35;;
77451;SDS011;66537;52.370;4.832;2023-09-07T04:46:05;17.00;;;7.75;;
77451;SDS011;66537;52.370;4.832;2023-09-07T04:48:31;13.98;;;7.10;;
77451;SDS011;66537;52.370;4.832;2023-09-07T04:51:07;16.92;;;7.63;;
77451;SDS011;66537;52.370;4.832;2023-09-07T04:56:00;17.10;;;7.38;;
77451;SDS011;66537;52.370;4.832;2023-09-07T04:58:29;13.48;;;7.05;;
77451;SDS011;66537;52.370;4.832;2023-09-07T05:01:00;13.57;;;7.55;;
77451;SDS011;66537;52.370;4.832;2023-09-07T05:03:29;19.70;;;8.52;;
77451;SDS011;66537;52.370;4.832;2023-09-07T05:05:55;11.68;;;6.57;;
77451;SDS011;66537;52.370;4.832;2023-09-07T05:08:21;14.00;;;6.82;;
77451;SDS011;66537;52.370;4.832;2023-09-07T05:10:47;15.85;;;8.45;;
77451;SDS011;66537;52.370;4.832;2023-09-07T05:13:13;13.40;;;7.03;;
77451;SDS011;66537;52.370;4.832;2023-09-07T05:15:46;14.70;;;6.82;;
77451;SDS011;66537;52.370;4.832;2023-09-07T05:18:16;15.65;;;8.48;;
77451;SDS011;66537;52.370;4.832;2023-09-07T05:20:42;13.10;;;6.75;;
77451;SDS011;66537;52.370;4.832;2023-09-07T05:23:10;16.05;;;7.63;;
77451;SDS011;66537;52.370;4.832;2023-09-07T05:25:42;13.98;;;8.43;;
77451;SDS011;66537;52.370;4.832;2023-09-07T05:28:09;14.32;;;7.68;;
77451;SDS011;66537;52.370;4.832;2023-09-07T05:30:34;14.35;;;7.45;;
77451;SDS011;66537;52.370;4.832;2023-09-07T05:33:00;17.85;;;8.15;;
77451;SDS011;66537;52.370;4.832;2023-09-07T05:35:25;15.73;;;8.98;;
77451;SDS011;66537;52.370;4.832;2023-09-07T05:37:54;15.82;;;8.38;;
77451;SDS011;66537;52.370;4.832;2023-09-07T05:40:19;20.75;;;10.18;;
77451;SDS011;66537;52.370;4.832;2023-09-07T05:42:44;16.23;;;8.95;;
77451;SDS011;66537;52.370;4.832;2023-09-07T05:45:11;13.90;;;8.73;;
77451;SDS011;66537;52.370;4.832;2023-09-07T05:47:36;13.73;;;7.47;;
77451;SDS011;66537;52.370;4.832;2023-09-07T05:50:02;15.90;;;8.60;;
77451;SDS011;66537;52.370;4.832;2023-09-07T05:52:27;16.45;;;8.07;;
77451;SDS011;66537;52.370;4.832;2023-09-07T05:54:53;16.33;;;8.47;;
77451;SDS011;66537;52.370;4.832;2023-09-07T05:57:18;17.27;;;9.20;;
77451;SDS011;66537;52.370;4.832;2023-09-07T05:59:43;14.33;;;7.63;;
77451;SDS011;66537;52.370;4.832;2023-09-07T06:02:09;14.93;;;8.27;;
77451;SDS011;66537;52.370;4.832;2023-09-07T06:04:34;14.48;;;8.68;;
77451;SDS011;66537;52.370;4.832;2023-09-07T06:07:00;15.88;;;7.57;;
77451;SDS011;66537;52.370;4.832;2023-09-07T06:09:25;14.30;;;7.78;;
77451;SDS011;66537;52.370;4.832;2023-09-07T06:11:51;13.90;;;7.47;;
77451;SDS011;66537;52.370;4.832;2023-09-07T06:14:16;17.10;;;7.85;;
77451;SDS011;66537;52.370;4.832;2023-09-07T06:16:41;17.98;;;8.15;;
77451;SDS011;66537;52.370;4.832;2023-09-07T06:19:06;16.10;;;6.80;;
77451;SDS011;66537;52.370;4.832;2023-09-07T06:21:32;14.68;;;7.45;;
77451;SDS011;66537;52.370;4.832;2023-09-07T06:23:58;12.57;;;6.78;;
77451;SDS011;66537;52.370;4.832;2023-09-07T06:26:23;16.10;;;7.93;;
77451;SDS011;66537;52.370;4.832;2023-09-07T06:28:48;13.15;;;6.95;;
77451;SDS011;66537;52.370;4.832;2023-09-07T06:31:14;13.32;;;7.00;;
77451;SDS011;66537;52.370;4.832;2023-09-07T06:33:39;15.18;;;7.10;;
77451;SDS011;66537;52.370;4.832;2023-09-07T06:36:04;13.83;;;7.27;;
77451;SDS011;66537;52.370;4.832;2023-09-07T06:38:30;12.63;;;6.75;;
77451;SDS011;66537;52.370;4.832;2023-09-07T06:40:56;15.65;;;8.48;;
77451;SDS011;66537;52.370;4.832;2023-09-07T06:43:22;12.80;;;6.95;;
77451;SDS011;66537;52.370;4.832;2023-09-07T06:45:48;13.85;;;6.32;;
77451;SDS011;66537;52.370;4.832;2023-09-07T06:48:13;13.05;;;6.85;;
77451;SDS011;66537;52.370;4.832;2023-09-07T06:50:38;16.00;;;7.22;;
77451;SDS011;66537;52.370;4.832;2023-09-07T06:53:04;15.57;;;7.85;;
77451;SDS011;66537;52.370;4.832;2023-09-07T06:55:29;12.47;;;6.73;;
77451;SDS011;66537;52.370;4.832;2023-09-07T06:57:55;15.93;;;6.68;;
77451;SDS011;66537;52.370;4.832;2023-09-07T07:00:20;11.15;;;6.28;;
77451;SDS011;66537;52.370;4.832;2023-09-07T07:02:46;15.60;;;7.63;;
77451;SDS011;66537;52.370;4.832;2023-09-07T07:05:12;11.93;;;6.97;;
77451;SDS011;66537;52.370;4.832;2023-09-07T07:07:38;14.30;;;5.97;;
77451;SDS011;66537;52.370;4.832;2023-09-07T07:10:03;13.45;;;6.15;;
77451;SDS011;66537;52.370;4.832;2023-09-07T07:12:30;14.55;;;6.85;;
77451;SDS011;66537;52.370;4.832;2023-09-07T07:14:59;11.70;;;6.20;;
77451;SDS011;66537;52.370;4.832;2023-09-07T07:17:24;15.13;;;6.40;;
77451;SDS011;66537;52.370;4.832;2023-09-07T07:19:50;10.68;;;6.03;;
77451;SDS011;66537;52.370;4.832;2023-09-07T07:22:15;12.52;;;6.22;;
77451;SDS011;66537;52.370;4.832;2023-09-07T07:24:41;13.02;;;6.25;;
77451;SDS011;66537;52.370;4.832;2023-09-07T07:27:06;11.52;;;6.40;;
77451;SDS011;66537;52.370;4.832;2023-09-07T07:29:31;12.10;;;5.45;;
77451;SDS011;66537;52.370;4.832;2023-09-07T07:31:57;16.75;;;5.78;;
77451;SDS011;66537;52.370;4.832;2023-09-07T07:34:22;12.23;;;5.90;;
77451;SDS011;66537;52.370;4.832;2023-09-07T07:36:47;13.55;;;5.57;;
77451;SDS011;66537;52.370;4.832;2023-09-07T07:39:13;11.82;;;6.00;;
77451;SDS011;66537;52.370;4.832;2023-09-07T07:41:38;12.82;;;5.65;;
77451;SDS011;66537;52.370;4.832;2023-09-07T07:44:03;12.05;;;5.13;;
77451;SDS011;66537;52.370;4.832;2023-09-07T07:46:29;12.63;;;5.65;;
77451;SDS011;66537;52.370;4.832;2023-09-07T07:48:54;9.30;;;5.43;;
77451;SDS011;66537;52.370;4.832;2023-09-07T07:51:19;12.67;;;4.43;;
77451;SDS011;66537;52.370;4.832;2023-09-07T07:53:45;10.15;;;4.80;;
77451;SDS011;66537;52.370;4.832;2023-09-07T07:56:14;7.97;;;4.60;;
77451;SDS011;66537;52.370;4.832;2023-09-07T07:58:40;9.82;;;5.38;;
77451;SDS011;66537;52.370;4.832;2023-09-07T08:01:12;9.15;;;5.25;;
77451;SDS011;66537;52.370;4.832;2023-09-07T08:03:42;11.82;;;4.45;;
77451;SDS011;66537;52.370;4.832;2023-09-07T08:06:08;9.30;;;4.80;;
77451;SDS011;66537;52.370;4.832;2023-09-07T08:08:33;11.18;;;4.95;;
77451;SDS011;66537;52.370;4.832;2023-09-07T08:10:59;8.25;;;4.47;;
77451;SDS011;66537;52.370;4.832;2023-09-07T08:13:29;8.50;;;4.80;;
77451;SDS011;66537;52.370;4.832;2023-09-07T08:15:55;10.30;;;4.45;;
77451;SDS011;66537;52.370;4.832;2023-09-07T08:18:20;12.68;;;4.03;;
77451;SDS011;66537;52.370;4.832;2023-09-07T08:20:45;11.15;;;4.68;;
77451;SDS011;66537;52.370;4.832;2023-09-07T08:23:11;9.23;;;4.57;;
77451;SDS011;66537;52.370;4.832;2023-09-07T08:25:36;11.80;;;4.32;;
77451;SDS011;66537;52.370;4.832;2023-09-07T08:28:04;11.65;;;5.85;;
77451;SDS011;66537;52.370;4.832;2023-09-07T08:30:30;11.45;;;4.72;;
77451;SDS011;66537;52.370;4.832;2023-09-07T08:32:56;7.97;;;4.15;;
77451;SDS011;66537;52.370;4.832;2023-09-07T08:35:21;11.25;;;4.78;;
77451;SDS011;66537;52.370;4.832;2023-09-07T08:37:51;8.90;;;4.75;;
77451;SDS011;66537;52.370;4.832;2023-09-07T08:40:17;10.75;;;4.35;;
77451;SDS011;66537;52.370;4.832;2023-09-07T08:42:43;10.27;;;5.55;;
77451;SDS011;66537;52.370;4.832;2023-09-07T08:45:09;9.55;;;4.80;;
77451;SDS011;66537;52.370;4.832;2023-09-07T08:47:40;8.63;;;5.18;;
77451;SDS011;66537;52.370;4.832;2023-09-07T08:50:08;10.32;;;4.35;;
77451;SDS011;66537;52.370;4.832;2023-09-07T08:52:34;8.40;;;4.35;;
77451;SDS011;66537;52.370;4.832;2023-09-07T08:55:00;10.38;;;4.82;;
77451;SDS011;66537;52.370;4.832;2023-09-07T08:59:55;9.63;;;4.90;;
77451;SDS011;66537;52.370;4.832;2023-09-07T09:02:20;8.90;;;4.80;;
77451;SDS011;66537;52.370;4.832;2023-09-07T09:04:45;12.13;;;5.25;;
77451;SDS011;66537;52.370;4.832;2023-09-07T09:07:11;11.60;;;5.32;;
77451;SDS011;66537;52.370;4.832;2023-09-07T09:09:36;12.13;;;4.68;;
77451;SDS011;66537;52.370;4.832;2023-09-07T09:12:07;12.68;;;5.47;;
77451;SDS011;66537;52.370;4.832;2023-09-07T09:14:35;9.95;;;4.53;;
77451;SDS011;66537;52.370;4.832;2023-09-07T09:17:01;9.98;;;4.68;;
77451;SDS011;66537;52.370;4.832;2023-09-07T09:19:30;13.23;;;5.38;;
77451;SDS011;66537;52.370;4.832;2023-09-07T09:21:57;13.05;;;5.05;;
77451;SDS011;66537;52.370;4.832;2023-09-07T09:24:22;12.88;;;5.05;;
77451;SDS011;66537;52.370;4.832;2023-09-07T09:26:48;11.88;;;5.53;;
77451;SDS011;66537;52.370;4.832;2023-09-07T09:29:13;9.65;;;4.75;;
77451;SDS011;66537;52.370;4.832;2023-09-07T09:31:40;11.90;;;5.22;;
77451;SDS011;66537;52.370;4.832;2023-09-07T09:34:05;11.43;;;4.97;;
77451;SDS011;66537;52.370;4.832;2023-09-07T09:36:35;13.43;;;6.03;;
77451;SDS011;66537;52.370;4.832;2023-09-07T09:39:01;12.73;;;5.38;;
77451;SDS011;66537;52.370;4.832;2023-09-07T09:41:28;9.95;;;4.53;;
77451;SDS011;66537;52.370;4.832;2023-09-07T09:43:56;10.38;;;5.13;;
77451;SDS011;66537;52.370;4.832;2023-09-07T09:46:23;10.43;;;5.15;;
77451;SDS011;66537;52.370;4.832;2023-09-07T09:48:49;9.70;;;4.72;;
77451;SDS011;66537;52.370;4.832;2023-09-07T09:51:16;12.95;;;5.03;;
77451;SDS011;66537;52.370;4.832;2023-09-07T09:53:43;11.82;;;5.07;;
77451;SDS011;66537;52.370;4.832;2023-09-07T09:56:09;11.60;;;4.70;;
77451;SDS011;66537;52.370;4.832;2023-09-07T09:58:35;11.63;;;4.90;;
77451;SDS011;66537;52.370;4.832;2023-09-07T10:01:02;13.07;;;5.88;;
77451;SDS011;66537;52.370;4.832;2023-09-07T10:03:48;15.15;;;5.05;;
77451;SDS011;66537;52.370;4.832;2023-09-07T10:06:18;10.77;;;4.95;;
77451;SDS011;66537;52.370;4.832;2023-09-07T10:08:52;11.05;;;4.75;;
77451;SDS011;66537;52.370;4.832;2023-09-07T10:11:25;11.45;;;4.38;;
77451;SDS011;66537;52.370;4.832;2023-09-07T10:13:56;9.38;;;5.13;;
77451;SDS011;66537;52.370;4.832;2023-09-07T10:16:22;8.45;;;5.20;;
77451;SDS011;66537;52.370;4.832;2023-09-07T10:18:47;10.80;;;4.93;;
77451;SDS011;66537;52.370;4.832;2023-09-07T10:21:13;9.60;;;4.53;;
77451;SDS011;66537;52.370;4.832;2023-09-07T10:23:41;9.95;;;5.00;;
77451;SDS011;66537;52.370;4.832;2023-09-07T10:26:12;11.30;;;4.38;;
77451;SDS011;66537;52.370;4.832;2023-09-07T10:28:38;7.90;;;4.65;;
77451;SDS011;66537;52.370;4.832;2023-09-07T10:31:12;9.07;;;4.40;;
77451;SDS011;66537;52.370;4.832;2023-09-07T10:33:39;9.02;;;4.63;;
77451;SDS011;66537;52.370;4.832;2023-09-07T10:36:05;10.70;;;5.03;;
77451;SDS011;66537;52.370;4.832;2023-09-07T10:38:31;8.85;;;4.65;;
77451;SDS011;66537;52.370;4.832;2023-09-07T10:40:58;11.30;;;4.25;;
77451;SDS011;66537;52.370;4.832;2023-09-07T10:43:25;11.45;;;4.65;;
77451;SDS011;66537;52.370;4.832;2023-09-07T10:45:51;10.77;;;4.85;;
77451;SDS011;66537;52.370;4.832;2023-09-07T10:48:16;11.02;;;5.05;;
77451;SDS011;66537;52.370;4.832;2023-09-07T10:50:43;10.70;;;4.38;;
77451;SDS011;66537;52.370;4.832;2023-09-07T10:53:12;10.90;;;5.05;;
77451;SDS011;66537;52.370;4.832;2023-09-07T10:55:39;14.23;;;6.00;;
77451;SDS011;66537;52.370;4.832;2023-09-07T10:58:05;16.70;;;5.28;;
77451;SDS011;66537;52.370;4.832;2023-09-07T11:00:31;9.43;;;5.30;;
77451;SDS011;66537;52.370;4.832;2023-09-07T11:02:57;10.68;;;5.43;;
77451;SDS011;66537;52.370;4.832;2023-09-07T11:05:22;11.77;;;5.68;;
77451;SDS011;66537;52.370;4.832;2023-09-07T11:07:47;10.80;;;5.47;;
77451;SDS011;66537;52.370;4.832;2023-09-07T11:10:13;10.60;;;5.50;;
77451;SDS011;66537;52.370;4.832;2023-09-07T11:12:39;13.80;;;5.32;;
77451;SDS011;66537;52.370;4.832;2023-09-07T11:15:08;9.25;;;5.05;;
77451;SDS011;66537;52.370;4.832;2023-09-07T11:17:36;12.10;;;5.38;;
77451;SDS011;66537;52.370;4.832;2023-09-07T11:20:04;9.57;;;5.30;;
77451;SDS011;66537;52.370;4.832;2023-09-07T11:22:31;9.00;;;4.97;;
77451;SDS011;66537;52.370;4.832;2023-09-07T11:24:57;9.63;;;5.03;;
77451;SDS011;66537;52.370;4.832;2023-09-07T11:27:28;12.65;;;5.40;;
77451;SDS011;66537;52.370;4.832;2023-09-07T11:29:55;9.65;;;5.10;;
77451;SDS011;66537;52.370;4.832;2023-09-07T11:32:21;10.00;;;5.25;;
77451;SDS011;66537;52.370;4.832;2023-09-07T11:34:49;8.82;;;4.97;;
77451;SDS011;66537;52.370;4.832;2023-09-07T11:37:16;9.88;;;5.28;;
77451;SDS011;66537;52.370;4.832;2023-09-07T11:39:48;10.00;;;4.65;;
77451;SDS011;66537;52.370;4.832;2023-09-07T11:42:13;12.65;;;5.10;;
77451;SDS011;66537;52.370;4.832;2023-09-07T11:44:38;10.23;;;5.20;;
77451;SDS011;66537;52.370;4.832;2023-09-07T11:47:04;10.70;;;5.15;;
77451;SDS011;66537;52.370;4.832;2023-09-07T11:49:29;12.88;;;5.30;;
77451;SDS011;66537;52.370;4.832;2023-09-07T11:51:56;11.90;;;4.90;;
77451;SDS011;66537;52.370;4.832;2023-09-07T11:54:22;9.13;;;5.13;;
77451;SDS011;66537;52.370;4.832;2023-09-07T11:56:48;10.98;;;5.00;;
77451;SDS011;66537;52.370;4.832;2023-09-07T11:59:13;12.32;;;5.10;;
77451;SDS011;66537;52.370;4.832;2023-09-07T12:01:39;12.70;;;5.53;;
77451;SDS011;66537;52.370;4.832;2023-09-07T12:04:05;9.27;;;4.80;;
77451;SDS011;66537;52.370;4.832;2023-09-07T12:06:31;12.38;;;5.30;;
77451;SDS011;66537;52.370;4.832;2023-09-07T12:08:58;10.15;;;4.55;;
77451;SDS011;66537;52.370;4.832;2023-09-07T12:11:27;12.10;;;4.93;;
77451;SDS011;66537;52.370;4.832;2023-09-07T12:13:52;10.45;;;4.25;;
77451;SDS011;66537;52.370;4.832;2023-09-07T12:16:18;9.55;;;4.65;;
77451;SDS011;66537;52.370;4.832;2023-09-07T12:18:43;9.20;;;4.70;;
77451;SDS011;66537;52.370;4.832;2023-09-07T12:21:08;11.73;;;4.45;;
77451;SDS011;66537;52.370;4.832;2023-09-07T12:23:34;15.60;;;5.17;;
77451;SDS011;66537;52.370;4.832;2023-09-07T12:26:00;13.15;;;4.95;;
77451;SDS011;66537;52.370;4.832;2023-09-07T12:28:29;11.55;;;5.57;;
77451;SDS011;66537;52.370;4.832;2023-09-07T12:30:55;8.35;;;4.75;;
77451;SDS011;66537;52.370;4.832;2023-09-07T12:33:20;9.65;;;4.90;;
77451;SDS011;66537;52.370;4.832;2023-09-07T12:35:45;9.18;;;4.90;;
77451;SDS011;66537;52.370;4.832;2023-09-07T12:38:11;10.70;;;4.68;;
77451;SDS011;66537;52.370;4.832;2023-09-07T12:40:40;9.45;;;4.15;;
77451;SDS011;66537;52.370;4.832;2023-09-07T12:43:05;10.30;;;4.80;;
77451;SDS011;66537;52.370;4.832;2023-09-07T12:45:30;7.65;;;4.53;;
77451;SDS011;66537;52.370;4.832;2023-09-07T12:47:56;10.32;;;4.85;;
77451;SDS011;66537;52.370;4.832;2023-09-07T12:50:21;7.95;;;4.38;;
77451;SDS011;66537;52.370;4.832;2023-09-07T12:52:48;11.75;;;4.45;;
77451;SDS011;66537;52.370;4.832;2023-09-07T12:55:13;9.10;;;4.18;;
77451;SDS011;66537;52.370;4.832;2023-09-07T12:57:39;9.70;;;4.20;;
77451;SDS011;66537;52.370;4.832;2023-09-07T13:00:05;9.95;;;5.40;;
77451;SDS011;66537;52.370;4.832;2023-09-07T13:02:31;8.93;;;4.50;;
77451;SDS011;66537;52.370;4.832;2023-09-07T13:04:57;8.82;;;4.53;;
77451;SDS011;66537;52.370;4.832;2023-09-07T13:07:22;9.40;;;4.32;;
77451;SDS011;66537;52.370;4.832;2023-09-07T13:09:47;8.82;;;4.45;;
77451;SDS011;66537;52.370;4.832;2023-09-07T13:12:13;11.35;;;4.53;;
77451;SDS011;66537;52.370;4.832;2023-09-07T13:14:38;7.87;;;3.87;;
77451;SDS011;66537;52.370;4.832;2023-09-07T13:17:04;8.93;;;4.47;;
77451;SDS011;66537;52.370;4.832;2023-09-07T13:19:29;8.57;;;4.35;;
77451;SDS011;66537;52.370;4.832;2023-09-07T13:21:55;8.80;;;4.07;;
77451;SDS011;66537;52.370;4.832;2023-09-07T13:24:20;7.90;;;4.60;;
77451;SDS011;66537;52.370;4.832;2023-09-07T13:26:47;9.68;;;4.43;;
77451;SDS011;66537;52.370;4.832;2023-09-07T13:29:13;10.13;;;4.53;;
77451;SDS011;66537;52.370;4.832;2023-09-07T13:31:39;9.50;;;5.43;;
77451;SDS011;66537;52.370;4.832;2023-09-07T13:34:04;15.40;;;4.73;;
77451;SDS011;66537;52.370;4.832;2023-09-07T13:36:29;10.38;;;4.57;;
77451;SDS011;66537;52.370;4.832;2023-09-07T13:38:55;9.35;;;4.88;;
77451;SDS011;66537;52.370;4.832;2023-09-07T13:41:22;9.85;;;5.07;;
77451;SDS011;66537;52.370;4.832;2023-09-07T13:43:48;10.20;;;5.28;;
77451;SDS011;66537;52.370;4.832;2023-09-07T13:46:13;11.18;;;6.03;;
77451;SDS011;66537;52.370;4.832;2023-09-07T13:48:38;9.18;;;4.60;;
77451;SDS011;66537;52.370;4.832;2023-09-07T13:51:04;9.57;;;4.85;;
77451;SDS011;66537;52.370;4.832;2023-09-07T13:53:29;8.88;;;4.55;;
77451;SDS011;66537;52.370;4.832;2023-09-07T13:55:55;9.88;;;5.00;;
77451;SDS011;66537;52.370;4.832;2023-09-07T13:58:20;9.52;;;4.72;;
77451;SDS011;66537;52.370;4.832;2023-09-07T14:00:45;9.00;;;5.00;;
77451;SDS011;66537;52.370;4.832;2023-09-07T14:03:11;8.82;;;4.35;;
77451;SDS011;66537;52.370;4.832;2023-09-07T14:05:37;9.85;;;4.40;;
77451;SDS011;66537;52.370;4.832;2023-09-07T14:08:02;8.60;;;4.22;;
77451;SDS011;66537;52.370;4.832;2023-09-07T14:10:28;6.75;;;4.35;;
77451;SDS011;66537;52.370;4.832;2023-09-07T14:12:53;9.45;;;4.50;;
77451;SDS011;66537;52.370;4.832;2023-09-07T14:15:19;9.50;;;4.05;;
77451;SDS011;66537;52.370;4.832;2023-09-07T14:17:44;8.88;;;4.40;;
77451;SDS011;66537;52.370;4.832;2023-09-07T14:20:09;8.00;;;4.38;;
77451;SDS011;66537;52.370;4.832;2023-09-07T14:22:35;9.35;;;4.43;;
77451;SDS011;66537;52.370;4.832;2023-09-07T14:25:01;10.52;;;5.18;;
77451;SDS011;66537;52.370;4.832;2023-09-07T14:27:26;8.77;;;4.32;;
77451;SDS011;66537;52.370;4.832;2023-09-07T14:29:51;8.15;;;4.38;;
77451;SDS011;66537;52.370;4.832;2023-09-07T14:32:17;8.05;;;4.80;;
77451;SDS011;66537;52.370;4.832;2023-09-07T14:34:42;8.57;;;4.85;;
77451;SDS011;66537;52.370;4.832;2023-09-07T14:37:08;7.13;;;4.40;;